Time;durP1;ratioP1;P1;durP2;ratioP2;P2;SDS_P1;SDS_P2;PMS_P1;PMS_P2;Temp;Humidity;BMP_temperature;BMP_pressure;BME280_temperature;BME280_humidity;BME280_pressure;Samples;Min_cycle;Max_cycle;Signal;HPM_P1;HPM_P2
2022/08/28 00:01:38;;;;;;;11.00;2.00;;;;;;;;;;4667194;28;10000427;-75
2022/08/28 00:04:03;;;;;;;8.60;2.00;;;;;;;;;;5019489;28;20033;-76
2022/08/28 00:06:29;;;;;;;8.70;2.17;;;;;;;;;;5014497;28;20764;-76
2022/08/28 00:08:57;;;;;;;11.70;1.98;;;;;;;;;;5024663;28;20073;-76
2022/08/28 00:11:23;;;;;;;9.93;1.92;;;;;;;;;;5017956;28;20574;-76
2022/08/28 00:13:50;;;;;;;9.05;1.88;;;;;;;;;;5026682;28;20120;-75
2022/08/28 00:16:17;;;;;;;7.35;1.77;;;;;;;;;;5024765;28;20528;-75
2022/08/28 00:18:43;;;;;;;11.00;2.40;;;;;;;;;;5027160;28;20036;-76
2022/08/28 00:21:09;;;;;;;11.50;1.90;;;;;;;;;;5023938;28;20060;-75
2022/08/28 00:23:36;;;;;;;10.57;2.35;;;;;;;;;;5023898;28;20140;-76
2022/08/28 00:26:02;;;;;;;8.52;1.88;;;;;;;;;;5025588;28;20670;-75
2022/08/28 00:28:28;;;;;;;11.43;2.40;;;;;;;;;;5024524;28;20911;-75
2022/08/28 00:30:57;;;;;;;10.90;2.30;;;;;;;;;;5026609;28;20393;-75
2022/08/28 00:33:28;;;;;;;8.48;2.05;;;;;;;;;;5024586;28;20551;-76
2022/08/28 00:35:55;;;;;;;10.88;2.20;;;;;;;;;;5024412;28;20033;-75
2022/08/28 00:38:22;;;;;;;13.63;1.90;;;;;;;;;;5018519;28;20611;-74
2022/08/28 00:40:49;;;;;;;11.10;1.83;;;;;;;;;;5020986;28;20021;-76
2022/08/28 00:43:45;;;;;;;9.35;2.10;;;;;;;;;;5016516;28;20036;-76
2022/08/28 00:46:12;;;;;;;8.35;1.85;;;;;;;;;;5029077;28;20032;-76
2022/08/28 00:48:38;;;;;;;11.07;2.00;;;;;;;;;;5039534;28;20033;-75
2022/08/28 00:53:50;;;;;;;10.43;2.00;;;;;;;;;;5018799;28;20041;-75
2022/08/28 00:56:18;;;;;;;8.88;1.70;;;;;;;;;;5015134;28;20030;-76
2022/08/28 00:58:45;;;;;;;9.23;1.58;;;;;;;;;;5010236;28;20050;-75
2022/08/28 01:01:12;;;;;;;10.45;1.98;;;;;;;;;;5019653;28;20060;-75
2022/08/28 01:03:38;;;;;;;12.82;2.20;;;;;;;;;;5026205;28;20197;-76
2022/08/28 01:06:05;;;;;;;8.65;1.88;;;;;;;;;;5024574;28;20057;-75
2022/08/28 01:08:32;;;;;;;11.73;2.00;;;;;;;;;;5011733;28;20072;-75
2022/08/28 01:11:00;;;;;;;7.03;2.00;;;;;;;;;;5017226;28;20183;-75
2022/08/28 01:13:27;;;;;;;9.02;2.20;;;;;;;;;;5019222;28;20030;-76
2022/08/28 01:15:54;;;;;;;8.65;2.10;;;;;;;;;;5026995;28;20048;-76
2022/08/28 01:18:20;;;;;;;7.90;1.80;;;;;;;;;;5019009;28;20044;-75
2022/08/28 01:20:51;;;;;;;8.85;2.15;;;;;;;;;;5024786;28;20393;-75
2022/08/28 01:23:17;;;;;;;12.05;2.15;;;;;;;;;;5015578;28;20029;-76
2022/08/28 01:25:43;;;;;;;9.18;2.05;;;;;;;;;;5022637;28;20040;-76
2022/08/28 01:28:11;;;;;;;13.18;2.15;;;;;;;;;;5022665;28;20477;-75
2022/08/28 01:30:37;;;;;;;11.25;2.28;;;;;;;;;;5018302;28;20029;-76
2022/08/28 01:33:03;;;;;;;7.57;2.10;;;;;;;;;;5023759;28;20032;-75
2022/08/28 01:35:31;;;;;;;8.40;2.38;;;;;;;;;;5024381;28;20131;-76
2022/08/28 01:37:57;;;;;;;12.40;1.98;;;;;;;;;;5025587;28;20537;-75
2022/08/28 01:40:28;;;;;;;16.27;2.45;;;;;;;;;;5024735;28;20030;-75
2022/08/28 01:42:54;;;;;;;11.57;2.30;;;;;;;;;;5018667;28;20703;-75
2022/08/28 01:45:21;;;;;;;9.40;2.08;;;;;;;;;;5018660;28;20034;-75
2022/08/28 01:47:47;;;;;;;10.23;2.35;;;;;;;;;;5017259;28;20034;-76
2022/08/28 01:50:15;;;;;;;9.15;2.00;;;;;;;;;;5014002;28;20036;-75
2022/08/28 01:52:42;;;;;;;12.13;2.40;;;;;;;;;;5014756;28;20025;-75
2022/08/28 01:55:08;;;;;;;8.70;2.47;;;;;;;;;;5018033;28;20504;-76
2022/08/28 01:57:35;;;;;;;7.53;2.10;;;;;;;;;;5020448;28;20025;-76
2022/08/28 02:00:01;;;;;;;10.55;2.28;;;;;;;;;;5019662;28;20097;-75
2022/08/28 02:02:28;;;;;;;9.70;2.03;;;;;;;;;;5023313;28;20092;-75
2022/08/28 02:04:54;;;;;;;8.63;2.13;;;;;;;;;;5028484;28;20041;-76
2022/08/28 02:07:20;;;;;;;8.60;2.30;;;;;;;;;;5009934;28;20037;-76
2022/08/28 02:09:46;;;;;;;11.13;2.28;;;;;;;;;;5011337;28;21036;-75
2022/08/28 02:12:11;;;;;;;8.70;2.65;;;;;;;;;;5027078;28;20033;-75
2022/08/28 02:14:37;;;;;;;8.32;2.47;;;17.80;99.90;;;;;;5016142;28;20022;-75
2022/08/28 02:17:03;;;;;;;10.80;2.45;;;17.80;99.90;;;;;;5018711;28;20109;-76
2022/08/28 02:19:29;;;;;;;8.95;2.47;;;17.80;99.90;;;;;;5024755;28;20037;-75
2022/08/28 02:21:55;;;;;;;8.40;2.38;;;17.80;99.90;;;;;;5016345;28;20030;-75
2022/08/28 02:24:21;;;;;;;7.40;2.35;;;17.80;99.90;;;;;;5008648;28;20026;-75
2022/08/28 02:26:46;;;;;;;8.05;2.50;;;17.80;99.90;;;;;;5009202;28;20389;-75
2022/08/28 02:29:12;;;;;;;9.13;2.13;;;17.80;99.90;;;;;;5016615;28;20116;-75
2022/08/28 02:31:37;;;;;;;10.45;2.72;;;17.80;99.90;;;;;;5025393;28;20037;-75
2022/08/28 02:34:04;;;;;;;13.50;2.50;;;17.80;99.90;;;;;;5017490;28;20030;-74
2022/08/28 02:36:30;;;;;;;8.95;2.45;;;17.80;99.90;;;;;;5019609;28;20512;-75
2022/08/28 02:38:56;;;;;;;11.88;2.42;;;;;;;;;;5018429;28;20029;-76
2022/08/28 02:41:22;;;;;;;8.43;2.42;;;17.70;99.90;;;;;;5020700;28;20606;-76
2022/08/28 02:43:48;;;;;;;9.52;2.50;;;17.80;99.90;;;;;;5012888;28;20030;-74
2022/08/28 02:46:13;;;;;;;6.85;2.00;;;17.80;99.90;;;;;;5019536;28;20061;-74
2022/08/28 02:48:39;;;;;;;11.35;2.50;;;;;;;;;;5017449;28;20096;-74
2022/08/28 02:51:10;;;;;;;10.10;2.53;;;17.80;99.90;;;;;;5020946;28;20029;-75
2022/08/28 02:53:36;;;;;;;7.63;2.53;;;17.70;99.90;;;;;;5013880;28;20034;-74
2022/08/28 02:56:03;;;;;;;6.70;2.47;;;17.70;99.90;;;;;;5021785;28;20041;-75
2022/08/28 02:58:31;;;;;;;8.15;2.55;;;17.70;99.90;;;;;;5017890;28;20052;-75
2022/08/28 03:00:58;;;;;;;11.38;3.08;;;17.60;99.90;;;;;;5017579;28;20064;-75
2022/08/28 03:03:24;;;;;;;10.15;2.38;;;17.60;99.90;;;;;;5017630;28;20109;-75
2022/08/28 03:05:50;;;;;;;9.20;2.80;;;17.60;99.90;;;;;;5018699;28;20108;-74
2022/08/28 03:08:15;;;;;;;10.90;2.80;;;17.60;99.90;;;;;;5016396;28;20038;-75
2022/08/28 03:10:41;;;;;;;14.38;3.28;;;17.60;99.90;;;;;;5025018;28;20393;-75
2022/08/28 03:13:07;;;;;;;12.90;2.85;;;17.60;99.90;;;;;;5020332;28;20044;-75
2022/08/28 03:15:33;;;;;;;13.80;3.05;;;17.60;99.90;;;;;;5024835;28;20079;-75
2022/08/28 03:17:58;;;;;;;15.00;3.08;;;17.60;99.90;;;;;;5023188;28;20029;-75
2022/08/28 03:20:24;;;;;;;9.00;2.95;;;17.50;99.90;;;;;;5025177;28;20082;-75
2022/08/28 03:25:34;;;;;;;11.60;2.60;;;17.50;99.90;;;;;;5021433;28;20227;-75
2022/08/28 03:27:59;;;;;;;11.10;3.05;;;17.50;99.90;;;;;;5020765;28;20544;-75
2022/08/28 03:30:25;;;;;;;6.85;2.25;;;17.50;99.90;;;;;;5016686;28;20104;-75
2022/08/28 03:32:51;;;;;;;11.88;3.20;;;17.50;99.90;;;;;;5021287;28;20025;-75
2022/08/28 03:35:17;;;;;;;12.82;2.95;;;17.50;99.90;;;;;;5023010;28;20041;-75
2022/08/28 03:37:43;;;;;;;9.50;2.65;;;17.40;99.90;;;;;;5020277;28;20026;-75
2022/08/28 03:40:09;;;;;;;11.57;3.13;;;17.40;99.90;;;;;;5021427;28;20088;-75
2022/08/28 03:42:35;;;;;;;9.25;3.08;;;;;;;;;;5019387;28;20038;-75
2022/08/28 03:45:01;;;;;;;15.52;3.30;;;;;;;;;;5017208;28;20464;-75
2022/08/28 03:47:27;;;;;;;10.45;3.05;;;;;;;;;;5023560;28;20060;-75
2022/08/28 03:49:54;;;;;;;14.18;3.17;;;;;;;;;;5020787;28;20044;-75
2022/08/28 03:52:20;;;;;;;17.92;3.50;;;;;;;;;;5018210;28;20092;-74
2022/08/28 03:54:46;;;;;;;13.45;3.88;;;;;;;;;;5020820;28;20469;-74
2022/08/28 03:57:15;;;;;;;12.65;3.80;;;;;;;;;;5021587;28;20040;-75
2022/08/28 03:59:41;;;;;;;16.85;3.47;;;;;;;;;;5023780;28;20050;-74
2022/08/28 04:02:07;;;;;;;14.93;3.30;;;;;;;;;;5020291;28;20026;-75
2022/08/28 04:04:33;;;;;;;16.13;4.30;;;;;;;;;;5014230;28;20037;-75
2022/08/28 04:06:59;;;;;;;14.25;3.30;;;;;;;;;;5025006;28;20040;-75
2022/08/28 04:09:25;;;;;;;18.55;3.85;;;;;;;;;;5019046;28;20497;-75
2022/08/28 04:11:52;;;;;;;12.73;4.18;;;;;;;;;;5016169;28;20021;-75
2022/08/28 04:14:18;;;;;;;17.60;3.78;;;;;;;;;;5013153;28;20157;-75
2022/08/28 04:16:44;;;;;;;15.63;3.72;;;;;;;;;;5018315;28;20064;-75
2022/08/28 04:19:10;;;;;;;15.02;4.20;;;;;;;;;;5009697;28;20117;-75
2022/08/28 04:21:38;;;;;;;15.50;4.28;;;;;;;;;;5017676;28;20029;-75
2022/08/28 04:24:04;;;;;;;11.65;3.97;;;;;;;;;;5024329;28;20060;-75
2022/08/28 04:26:35;;;;;;;16.60;4.10;;;;;;;;;;5007692;28;20022;-75
2022/08/28 04:29:01;;;;;;;17.23;4.07;;;;;;;;;;5024470;28;20048;-75
2022/08/28 04:31:27;;;;;;;15.18;4.25;;;;;;;;;;5005768;28;20076;-75
2022/08/28 04:33:54;;;;;;;11.55;3.70;;;;;;;;;;5022032;28;20029;-75
2022/08/28 04:36:20;;;;;;;16.40;4.43;;;;;;;;;;5024235;28;20144;-75
2022/08/28 04:38:47;;;;;;;18.02;4.57;;;;;;;;;;5014498;28;20512;-75
2022/08/28 04:41:14;;;;;;;15.45;4.13;;;;;;;;;;5020147;28;20033;-75
2022/08/28 04:43:40;;;;;;;17.35;4.60;;;;;;;;;;5019350;28;20448;-74
2022/08/28 04:46:07;;;;;;;18.48;4.20;;;;;;;;;;5015770;28;20026;-75
2022/08/28 04:48:34;;;;;;;17.98;4.53;;;;;;;;;;5021123;28;20048;-75
2022/08/28 04:51:00;;;;;;;16.10;4.40;;;;;;;;;;5018219;28;20112;-75
2022/08/28 04:53:26;;;;;;;18.52;4.60;;;;;;;;;;5018531;28;20117;-74
2022/08/28 04:55:52;;;;;;;21.10;5.15;;;;;;;;;;5016054;28;20402;-74
2022/08/28 04:58:19;;;;;;;20.25;4.65;;;;;;;;;;5018202;28;20735;-74
2022/08/28 05:00:46;;;;;;;16.60;3.83;;;;;;;;;;5021512;28;20018;-75
2022/08/28 05:03:13;;;;;;;17.48;4.50;;;;;;;;;;5023254;28;20033;-75
2022/08/28 05:05:46;;;;;;;12.73;4.15;;;;;;;;;;5025535;28;20036;-75
2022/08/28 05:08:12;;;;;;;15.75;4.18;;;;;;;;;;5022421;28;20022;-75
2022/08/28 05:10:39;;;;;;;16.45;4.47;;;;;;;;;;5016549;28;20048;-75
2022/08/28 05:13:07;;;;;;;19.85;4.30;;;;;;;;;;5024381;28;20112;-76
2022/08/28 05:15:32;;;;;;;15.18;4.10;;;;;;;;;;5026283;28;20033;-75
2022/08/28 05:17:59;;;;;;;16.80;4.00;;;;;;;;;;5021399;28;20044;-75
2022/08/28 05:20:25;;;;;;;16.63;4.30;;;;;;;;;;5023397;28;20041;-75
2022/08/28 05:22:51;;;;;;;16.23;4.32;;;;;;;;;;5020212;28;20389;-75
2022/08/28 05:25:17;;;;;;;18.10;4.40;;;;;;;;;;5024162;28;20032;-75
2022/08/28 05:27:43;;;;;;;16.48;4.30;;;;;;;;;;5023766;28;20033;-76
2022/08/28 05:30:09;;;;;;;17.20;3.80;;;;;;;;;;5022216;28;20108;-75
2022/08/28 05:32:35;;;;;;;15.48;4.20;;;;;;;;;;5024167;28;20026;-75
2022/08/28 05:35:01;;;;;;;14.63;4.20;;;;;;;;;;5012198;28;20037;-75
2022/08/28 05:37:27;;;;;;;19.23;4.35;;;;;;;;;;5023193;28;20103;-75
2022/08/28 05:39:53;;;;;;;14.18;4.25;;;;;;;;;;5027607;28;20061;-75
2022/08/28 05:42:19;;;;;;;21.40;4.47;;;;;;;;;;5017653;28;20033;-75
2022/08/28 05:44:45;;;;;;;17.42;4.15;;;;;;;;;;5023253;28;20033;-75
2022/08/28 05:47:11;;;;;;;14.27;4.35;;;;;;;;;;5022588;28;20033;-74
2022/08/28 05:49:39;;;;;;;15.23;4.50;;;;;;;;;;5019821;28;20033;-75
2022/08/28 05:52:05;;;;;;;17.10;4.53;;;;;;;;;;5014417;28;20041;-75
2022/08/28 05:54:31;;;;;;;13.82;3.83;;;;;;;;;;5014285;28;20445;-75
2022/08/28 05:56:57;;;;;;;15.75;4.45;;;;;;;;;;5024089;28;20112;-75
2022/08/28 05:59:24;;;;;;;15.15;4.30;;;;;;;;;;5021652;28;20046;-75
2022/08/28 06:01:50;;;;;;;13.88;4.10;;;;;;;;;;5021121;28;20021;-74
2022/08/28 06:04:23;;;;;;;19.98;4.55;;;;;;;;;;5019720;28;20425;-75
2022/08/28 06:06:49;;;;;;;12.20;3.92;;;;;;;;;;5023777;28;20096;-75
2022/08/28 06:09:18;;;;;;;11.52;4.07;;;;;;;;;;5022958;28;20121;-75
2022/08/28 06:11:44;;;;;;;12.20;3.83;;;;;;;;;;5019659;28;20037;-75
2022/08/28 06:14:11;;;;;;;14.82;4.10;;;;;;;;;;5024319;28;20401;-75
2022/08/28 06:16:41;;;;;;;18.15;4.18;;;;;;;;;;5016602;28;20088;-76
2022/08/28 06:19:09;;;;;;;18.63;4.22;;;;;;;;;;5022454;28;20032;-76
2022/08/28 06:21:36;;;;;;;16.27;4.00;;;;;;;;;;5014943;28;20499;-75
2022/08/28 06:24:02;;;;;;;15.38;4.15;;;;;;;;;;5025025;28;20038;-74
2022/08/28 06:26:28;;;;;;;18.95;3.97;;;;;;;;;;5023464;28;20033;-75
2022/08/28 06:28:54;;;;;;;14.65;4.10;;;;;;;;;;5022259;28;20036;-76
2022/08/28 06:31:20;;;;;;;10.93;3.53;;;;;;;;;;5018458;28;20021;-75
2022/08/28 06:33:46;;;;;;;16.00;4.47;;;;;;;;;;5020198;28;20032;-74
2022/08/28 06:36:12;;;;;;;19.10;4.68;;;;;;;;;;5019468;28;20022;-75
2022/08/28 06:38:38;;;;;;;15.95;4.10;;;;;;;;;;5023364;28;20630;-75
2022/08/28 06:41:10;;;;;;;17.23;4.38;;;;;;;;;;5021668;28;20025;-75
2022/08/28 06:43:36;;;;;;;18.30;4.13;;;;;;;;;;5014563;28;20030;-75
2022/08/28 06:46:02;;;;;;;13.52;4.00;;;;;;;;;;5022846;28;20529;-75
2022/08/28 06:48:30;;;;;;;12.27;3.95;;;;;;;;;;5013705;28;20040;-74
2022/08/28 06:50:57;;;;;;;12.27;4.15;;;;;;;;;;5022625;28;20108;-74
2022/08/28 06:53:25;;;;;;;12.55;3.67;;;;;;;;;;5020256;28;20048;-73
2022/08/28 06:56:10;;;;;;;12.73;4.13;;;;;;;;;;5020935;28;20414;-75
2022/08/28 06:58:37;;;;;;;16.75;4.20;;;;;;;;;;5020378;28;20057;-74
2022/08/28 07:01:09;;;;;;;17.33;4.47;;;;;;;;;;5021449;28;20091;-75
2022/08/28 07:03:35;;;;;;;12.40;3.60;;;;;;;;;;5017913;28;20034;-75
2022/08/28 07:06:03;;;;;;;12.30;3.80;;;;;;;;;;5023599;28;20017;-74
2022/08/28 07:08:29;;;;;;;13.98;3.83;;;;;;;;;;5019083;28;20567;-75
2022/08/28 07:10:55;;;;;;;15.52;4.22;;;;;;;;;;5020928;28;20717;-75
2022/08/28 07:13:22;;;;;;;11.73;3.67;;;;;;;;;;5015658;28;20433;-74
2022/08/28 07:15:48;;;;;;;14.45;4.25;;;;;;;;;;5020707;28;20022;-75
2022/08/28 07:18:14;;;;;;;11.27;3.60;;;;;;;;;;5018833;28;20392;-75
2022/08/28 07:20:40;;;;;;;16.02;3.65;;;;;;;;;;5021124;28;20056;-75
2022/08/28 07:23:06;;;;;;;13.48;3.60;;;;;;;;;;5019209;28;20120;-76
2022/08/28 07:25:32;;;;;;;13.20;3.50;;;;;;;;;;5021735;28;20545;-76
2022/08/28 07:27:59;;;;;;;12.27;4.00;;;;;;;;;;5010916;28;20044;-75
2022/08/28 07:30:25;;;;;;;10.73;3.70;;;;;;;;;;5018671;28;20557;-76
2022/08/28 07:32:51;;;;;;;12.27;3.92;;;;;;;;;;5013427;28;20112;-75
2022/08/28 07:35:17;;;;;;;12.25;4.05;;;;;;;;;;5023994;28;20056;-76
2022/08/28 07:37:44;;;;;;;11.25;3.65;;;;;;;;;;5017138;28;20038;-76
2022/08/28 07:40:11;;;;;;;14.82;4.10;;;;;;;;;;5022710;28;20021;-73
2022/08/28 07:45:22;;;;;;;11.63;3.50;;;;;;;;;;5014797;28;20091;-76
2022/08/28 07:47:49;;;;;;;10.48;3.50;;;;;;;;;;5017150;28;20629;-76
2022/08/28 07:50:15;;;;;;;10.75;3.63;;;;;;;;;;5016564;28;20049;-76
2022/08/28 07:52:41;;;;;;;15.40;3.63;;;;;;;;;;5013344;28;20029;-76
2022/08/28 07:55:07;;;;;;;9.18;3.33;;;;;;;;;;5017787;28;20043;-76
2022/08/28 07:57:34;;;;;;;9.40;3.30;;;;;;;;;;5014231;28;20390;-76
2022/08/28 08:00:00;;;;;;;9.93;3.70;;;;;;;;;;5009797;28;20468;-75
2022/08/28 08:02:26;;;;;;;10.40;3.55;;;;;;;;;;5015912;28;20040;-76
2022/08/28 08:04:53;;;;;;;18.95;3.72;;;;;;;;;;5022518;28;20063;-76
2022/08/28 08:07:19;;;;;;;8.57;3.60;;;;;;;;;;5017768;28;20030;-76
2022/08/28 08:09:45;;;;;;;12.55;3.95;;;;;;;;;;5020625;28;20465;-76
2022/08/28 08:12:12;;;;;;;8.10;3.22;;;;;;;;;;5022638;28;20053;-76
2022/08/28 08:14:39;;;;;;;10.80;3.92;;;;;;;;;;5026581;28;20091;-74
2022/08/28 08:17:05;;;;;;;9.35;3.53;;;;;;;;;;3972967;28;10000864;-75
2022/08/28 08:19:32;;;;;;;12.05;3.70;;;;;;;;;;5008549;28;20149;-75
2022/08/28 08:21:58;;;;;;;13.13;3.88;;;;;;;;;;5018656;28;20541;-74
2022/08/28 08:24:25;;;;;;;12.23;4.05;;;;;;;;;;5017160;28;20033;-76
2022/08/28 08:26:52;;;;;;;13.60;4.00;;;;;;;;;;5013688;28;20033;-76
2022/08/28 08:29:18;;;;;;;14.05;4.30;;;;;;;;;;5007499;28;20040;-76
2022/08/28 08:31:45;;;;;;;15.80;3.92;;;;;;;;;;5011744;28;20038;-75
2022/08/28 08:34:11;;;;;;;9.13;3.55;;;;;;;;;;5015178;28;20037;-75
2022/08/28 08:36:37;;;;;;;13.35;4.07;;;;;;;;;;5010494;28;20104;-75
2022/08/28 08:39:04;;;;;;;11.70;3.67;;;;;;;;;;5005093;28;20121;-79
2022/08/28 08:41:30;;;;;;;13.23;3.70;;;;;;;;;;5019417;28;20018;-83
2022/08/28 08:44:04;;;;;;;11.00;3.58;;;20.30;99.90;;;;;;5015587;28;20038;-78
2022/08/28 08:46:32;;;;;;;14.35;3.58;;;20.50;99.90;;;;;;5024268;28;20026;-80
2022/08/28 08:49:01;;;;;;;13.88;3.75;;;20.70;99.90;;;;;;5021906;28;20037;-81
2022/08/28 08:51:49;;;;;;;9.57;3.10;;;20.80;99.90;;;;;;5007853;28;20061;-81
2022/08/28 08:54:18;;;;;;;10.20;3.55;;;20.90;99.90;;;;;;5007739;28;20453;-80
2022/08/28 08:56:46;;;;;;;13.45;3.42;;;21.00;99.90;;;;;;5007243;28;20504;-81
2022/08/28 08:59:19;;;;;;;9.75;3.30;;;21.00;99.90;;;;;;5013276;28;20271;-76
2022/08/28 09:01:54;;;;;;;9.85;3.38;;;20.90;99.90;;;;;;5014374;28;20037;-77
2022/08/28 09:04:45;;;;;;;12.27;3.15;;;20.70;99.90;;;;;;5024958;28;20341;-77
2022/08/28 09:07:32;;;;;;;12.98;3.67;;;20.60;99.90;;;;;;5019501;28;20048;-77
2022/08/28 09:09:58;;;;;;;12.15;3.33;;;;;;;;;;5020049;28;20598;-76
2022/08/28 09:12:26;;;;;;;7.90;3.05;;;;;;;;;;5024738;28;20045;-76
2022/08/28 09:15:03;;;;;;;9.50;2.80;;;;;;;;;;5011694;28;20026;-76
2022/08/28 09:17:32;;;;;;;13.95;3.45;;;;;;;;;;5019070;28;20032;-76
2022/08/28 09:19:59;;;;;;;8.60;3.10;;;;;;;;;;5008427;28;20026;-77
2022/08/28 09:22:25;;;;;;;12.52;3.13;;;;;;;;;;5008809;28;20109;-76
2022/08/28 09:24:51;;;;;;;11.27;3.20;;;;;;;;;;5011195;28;20180;-76
2022/08/28 09:27:30;;;;;;;7.40;2.78;;;20.20;99.90;;;;;;5011725;28;20022;-76
2022/08/28 09:30:00;;;;;;;8.63;2.67;;;20.30;99.90;;;;;;5009067;28;20033;-77
2022/08/28 09:32:31;;;;;;;10.75;2.80;;;;;;;;;;5022487;28;20144;-78
2022/08/28 09:35:13;;;;;;;12.73;2.80;;;;;;;;;;5015716;28;20022;-77
2022/08/28 09:37:40;;;;;;;10.57;2.75;;;20.40;99.90;;;;;;5021637;28;20497;-79
2022/08/28 09:43:25;;;;;;;8.75;2.80;;;20.70;99.90;;;;;;5017164;28;20516;-79
2022/08/28 09:45:54;;;;;;;9.13;3.05;;;;;;;;;;5025217;28;20018;-78
2022/08/28 09:48:29;;;;;;;11.60;2.65;;;;;;;;;;5015034;28;20052;-81
2022/08/28 09:51:02;;;;;;;7.63;2.63;;;;;;;;;;5024456;28;20120;-82
2022/08/28 09:53:29;;;;;;;6.97;2.50;;;;;;;;;;5013258;28;20095;-78
2022/08/28 09:55:58;;;;;;;13.27;2.80;;;;;;;;;;5024619;28;20037;-77
2022/08/28 09:58:29;;;;;;;6.00;2.50;;;;;;;;;;5013921;28;20478;-78
2022/08/28 10:01:05;;;;;;;8.80;2.50;;;;;;;;;;5011394;28;20029;-78
2022/08/28 10:03:38;;;;;;;8.32;2.72;;;;;;;;;;5006579;28;20026;-76
2022/08/28 10:06:10;;;;;;;10.18;2.40;;;;;;;;;;5023991;28;20041;-78
2022/08/28 10:08:39;;;;;;;8.38;2.78;;;;;;;;;;5024881;28;20043;-77
2022/08/28 10:11:14;;;;;;;11.82;2.80;;;;;;;;;;5017351;28;20091;-79
2022/08/28 10:13:44;;;;;;;8.60;2.40;;;;;;;;;;5022161;28;20037;-77
2022/08/28 10:16:16;;;;;;;12.15;2.78;;;;;;;;;;5019598;28;20091;-75
2022/08/28 10:19:01;;;;;;;9.68;2.78;;;;;;;;;;5007023;28;20037;-75
2022/08/28 10:21:31;;;;;;;6.13;2.17;;;;;;;;;;5007861;28;20025;-77
2022/08/28 10:24:22;;;;;;;8.57;2.40;;;;;;;;;;5007489;28;20025;-75
2022/08/28 10:26:55;;;;;;;6.50;2.20;;;;;;;;;;5016593;28;20021;-77
2022/08/28 10:29:21;;;;;;;;;;;;;;;;;;5009552;28;20090;-76
2022/08/28 10:32:01;;;;;;;9.13;2.45;;;22.00;99.90;;;;;;5017328;28;19912;-76
2022/08/28 10:34:47;;;;;;;10.25;2.20;;;22.00;99.90;;;;;;5010717;28;20080;-76
2022/08/28 10:37:38;;;;;;;9.98;2.40;;;22.20;99.90;;;;;;5020239;28;20041;-77
2022/08/28 10:40:11;;;;;;;7.30;2.65;;;22.20;99.90;;;;;;5033523;28;20029;-77
2022/08/28 10:42:41;;;;;;;9.10;2.63;;;22.30;99.90;;;;;;5022200;28;20025;-76
2022/08/28 10:45:10;;;;;;;8.00;2.13;;;22.50;99.90;;;;;;5020661;28;20033;-76
2022/08/28 10:47:41;;;;;;;8.13;2.28;;;22.50;99.90;;;;;;5017499;28;20033;-76
2022/08/28 10:50:44;;;;;;;13.55;2.65;;;22.40;99.90;;;;;;5021329;28;20453;-76
2022/08/28 10:53:15;;;;;;;9.88;2.63;;;22.50;99.90;;;;;;4966474;28;20524;-76
2022/08/28 10:56:24;;;;;;;8.80;2.38;;;22.50;99.90;;;;;;5017283;28;20068;-75
2022/08/28 10:58:57;;;;;;;7.72;2.20;;;22.30;99.90;;;;;;4999317;28;20057;-77
2022/08/28 11:01:37;;;;;;;8.95;2.35;;;22.40;99.90;;;;;;5012048;28;20063;-77
2022/08/28 11:04:09;;;;;;;7.30;2.00;;;22.50;99.90;;;;;;5017651;28;20037;-78
2022/08/28 11:06:47;;;;;;;9.43;2.30;;;22.60;99.90;;;;;;5020688;28;20089;-76
2022/08/28 11:09:24;;;;;;;11.10;2.65;;;22.80;99.90;;;;;;5018684;28;20103;-76
2022/08/28 11:11:57;;;;;;;7.97;2.17;;;22.90;99.90;;;;;;5021336;28;20026;-78
2022/08/28 11:14:33;;;;;;;8.50;2.33;;;23.00;99.90;;;;;;5009820;28;20030;-79
2022/08/28 11:17:09;;;;;;;5.60;2.00;;;23.10;94.30;;;;;;5006918;28;20072;-76
2022/08/28 11:20:06;;;;;;;8.40;2.10;;;23.10;92.60;;;;;;5015716;28;20117;-78
2022/08/28 11:22:40;;;;;;;4.60;1.70;;;23.20;92.10;;;;;;5017579;28;20057;-78
2022/08/28 11:25:32;;;;;;;8.98;2.10;;;23.20;92.30;;;;;;5019938;28;20029;-79
2022/08/28 11:28:21;;;;;;;9.40;2.00;;;23.20;91.90;;;;;;5006064;28;20030;-76
2022/08/28 11:31:06;;;;;;;6.80;2.05;;;23.30;91.90;;;;;;5018851;28;20684;-77
2022/08/28 11:33:34;;;;;;;8.45;2.08;;;23.20;91.30;;;;;;5006391;28;20041;-80
2022/08/28 11:36:00;;;;;;;7.38;2.10;;;23.20;91.70;;;;;;5006773;28;20147;-75
2022/08/28 11:38:41;;;;;;;8.63;2.25;;;23.20;92.40;;;;;;5017171;28;20428;-76
2022/08/28 11:41:25;;;;;;;7.30;2.20;;;23.10;92.20;;;;;;5007862;28;20033;-78
2022/08/28 11:44:13;;;;;;;7.22;2.00;;;23.10;92.10;;;;;;5009033;28;20030;-78
2022/08/28 11:46:38;;;;;;;7.57;2.10;;;23.20;91.40;;;;;;5009643;28;20374;-77
2022/08/28 11:49:32;;;;;;;7.55;2.00;;;23.10;91.90;;;;;;5013717;28;20028;-76
2022/08/28 11:52:07;;;;;;;8.32;2.08;;;23.20;91.80;;;;;;5015396;28;20789;-78
2022/08/28 11:54:58;;;;;;;8.02;2.03;;;23.10;91.30;;;;;;5008566;28;20025;-77
2022/08/28 11:57:39;;;;;;;7.50;2.00;;;23.10;91.70;;;;;;5014084;28;20081;-76
2022/08/28 12:00:09;;;;;;;11.35;2.35;;;23.10;91.10;;;;;;5007442;28;20057;-78
2022/08/28 12:02:48;;;;;;;6.70;1.88;;;22.90;91.50;;;;;;5019421;28;20034;-77
2022/08/28 12:05:13;;;;;;;6.13;1.58;;;22.90;91.70;;;;;;5010079;28;20585;-77
2022/08/28 12:07:50;;;;;;;9.05;1.67;;;22.90;91.80;;;;;;5024147;28;20029;-76
2022/08/28 12:10:22;;;;;;;6.13;1.80;;;22.80;92.00;;;;;;5010118;28;20068;-78
2022/08/28 12:12:49;;;;;;;6.20;1.83;;;22.80;91.70;;;;;;5011892;28;20036;-78
2022/08/28 12:15:27;;;;;;;7.70;2.03;;;22.90;91.60;;;;;;5022554;28;20493;-79
2022/08/28 12:18:02;;;;;;;10.45;2.35;;;23.00;91.50;;;;;;5015723;28;20029;-78
2022/08/28 12:20:52;;;;;;;5.82;1.80;;;23.10;92.60;;;;;;5026892;28;20029;-78
2022/08/28 12:23:33;;;;;;;7.57;1.88;;;23.10;80.60;;;;;;5015216;28;20037;-78
2022/08/28 12:26:04;;;;;;;7.03;1.75;;;23.10;78.30;;;;;;5019919;28;20049;-77
2022/08/28 12:28:37;;;;;;;5.47;1.70;;;23.20;77.30;;;;;;5016509;28;20135;-78
2022/08/28 12:31:06;;;;;;;8.23;2.10;;;23.30;77.70;;;;;;5015926;28;20037;-77
2022/08/28 12:33:35;;;;;;;6.43;1.98;;;23.30;77.80;;;;;;5011421;28;20034;-78
2022/08/28 12:36:10;;;;;;;7.25;1.63;;;23.20;78.00;;;;;;5008726;28;20045;-77
2022/08/28 12:38:36;;;;;;;6.57;1.92;;;23.10;78.40;;;;;;5018365;28;20040;-75
2022/08/28 12:41:02;;;;;;;6.88;2.03;;;23.00;78.90;;;;;;5024511;28;20500;-75
2022/08/28 12:43:35;;;;;;;6.78;2.08;;;23.00;79.30;;;;;;5015151;28;20026;-74
2022/08/28 12:46:09;;;;;;;4.90;1.75;;;23.10;78.10;;;;;;5026872;28;20120;-77
2022/08/28 12:48:49;;;;;;;6.60;1.90;;;23.30;77.70;;;;;;5016884;28;20041;-73
2022/08/28 12:51:20;;;;;;;5.95;1.77;;;23.40;77.60;;;;;;5010962;28;20194;-76
2022/08/28 12:53:50;;;;;;;9.05;2.00;;;23.60;76.30;;;;;;5017735;28;20251;-77
2022/08/28 12:56:18;;;;;;;5.60;1.80;;;23.80;76.30;;;;;;5026043;28;20037;-77
2022/08/28 12:58:45;;;;;;;7.70;1.88;;;24.00;76.70;;;;;;5018607;28;20532;-76
2022/08/28 13:01:19;;;;;;;7.43;1.80;;;24.10;73.60;;;;;;5016786;28;20029;-77
2022/08/28 13:03:52;;;;;;;5.45;1.67;;;24.00;73.50;;;;;;5025161;28;20030;-78
2022/08/28 13:06:33;;;;;;;7.90;1.55;;;24.00;73.60;;;;;;5015770;28;20947;-75
2022/08/28 13:09:02;;;;;;;4.10;1.65;;;24.00;73.10;;;;;;5018782;28;20033;-80
2022/08/28 13:11:35;;;;;;;4.75;1.70;;;23.80;73.40;;;;;;5024482;28;20025;-79
2022/08/28 13:14:03;;;;;;;;;;;23.80;72.00;;;;;;5023562;28;20042;-80
2022/08/28 13:16:45;;;;;;;6.80;1.70;;;24.00;71.80;;;;;;5016107;28;19944;-79
2022/08/28 13:19:27;;;;;;;6.72;1.88;;;24.00;71.80;;;;;;5006594;28;20045;-80
2022/08/28 13:22:00;;;;;;;6.72;1.50;;;24.10;73.10;;;;;;5017736;28;20032;-78
2022/08/28 13:24:42;;;;;;;;;;;24.10;72.50;;;;;;5019504;28;20080;-79
2022/08/28 13:27:15;;;;;;;6.10;1.65;;;23.90;73.20;;;;;;5022115;28;20450;-81
2022/08/28 13:30:07;;;;;;;;;;;23.80;74.00;;;;;;5021262;28;20156;-74
2022/08/28 13:32:38;;;;;;;7.25;1.92;;;23.80;75.00;;;;;;4980565;28;19913;-76
2022/08/28 13:35:30;;;;;;;11.07;2.22;;;23.80;75.20;;;;;;4664571;28;10000000;-77
2022/08/28 13:38:02;;;;;;;6.47;1.90;;;23.80;75.20;;;;;;5023317;28;20092;-77
2022/08/28 13:40:32;;;;;;;6.70;1.90;;;23.70;74.90;;;;;;5004191;28;20026;-77
2022/08/28 13:43:08;;;;;;;6.47;1.77;;;23.80;74.70;;;;;;5006419;28;20437;-77
2022/08/28 13:45:34;;;;;;;7.53;1.80;;;23.80;73.70;;;;;;5012668;28;20261;-77
2022/08/28 13:48:00;;;;;;;7.00;1.75;;;23.70;71.90;;;;;;5006175;28;20034;-77
2022/08/28 13:50:26;;;;;;;5.53;1.88;;;23.60;71.50;;;;;;5009084;28;20382;-77
2022/08/28 13:52:53;;;;;;;6.97;1.92;;;23.60;71.70;;;;;;5022239;28;20116;-78
2022/08/28 13:55:19;;;;;;;7.20;1.70;;;23.50;71.60;;;;;;5022814;28;20038;-78
2022/08/28 13:57:45;;;;;;;5.75;1.92;;;23.40;72.50;;;;;;5006110;28;20379;-76
2022/08/28 14:00:11;;;;;;;7.28;1.77;;;23.30;72.70;;;;;;5028277;28;20390;-78
2022/08/28 14:05:24;;;;;;;5.65;1.85;;;23.50;73.00;;;;;;5028547;28;20121;-78
2022/08/28 14:07:49;;;;;;;7.22;1.95;;;23.50;72.20;;;;;;5022568;28;20026;-78
2022/08/28 14:10:15;;;;;;;5.90;1.60;;;23.40;72.50;;;;;;5009017;28;20529;-77
2022/08/28 14:12:41;;;;;;;7.53;1.90;;;23.40;72.60;;;;;;5012556;28;20029;-77
2022/08/28 14:15:08;;;;;;;9.50;2.05;;;23.50;72.30;;;;;;5019199;28;20030;-78